Time;durP1;ratioP1;P1;durP2;ratioP2;P2;SDS_P1;SDS_P2;PMS_P1;PMS_P2;Temp;Humidity;BMP_temperature;BMP_pressure;BME280_temperature;BME280_humidity;BME280_pressure;Samples;Min_cycle;Max_cycle;Signal;HPM_P1;HPM_P2
2024/03/07 00:00:22;;;;;;;50.33;34.88;;;;;;;30.06;81.10;100839.84;5058073;28;66674;-31
2024/03/07 00:02:52;;;;;;;44.95;34.05;;;;;;;30.10;81.65;100842.09;5051554;28;69865;-31
2024/03/07 00:05:40;;;;;;;38.92;33.40;;;;;;;30.09;82.76;100838.56;5056031;28;66367;-31
2024/03/07 00:08:11;;;;;;;47.45;35.40;;;;;;;30.15;84.06;100840.41;5058078;28;70277;-33
2024/03/07 00:10:44;;;;;;;44.30;34.28;;;;;;;30.12;83.25;100846.25;5058234;28;65745;-32
2024/03/07 00:13:14;;;;;;;46.63;33.75;;;;;;;30.03;83.33;100826.75;5057058;28;70301;-31
2024/03/07 00:15:45;;;;;;;38.50;33.33;;;;;;;30.18;83.07;100850.78;5057265;28;66335;-32
2024/03/07 00:18:16;;;;;;;41.67;33.22;;;;;;;30.21;83.26;100860.34;5055576;28;70763;-31
2024/03/07 00:20:47;;;;;;;46.72;36.28;;;;;;;30.12;83.95;100846.25;5059527;28;66244;-31
2024/03/07 00:23:18;;;;;;;51.15;37.83;;;;;;;30.19;84.70;100867.84;5058678;28;70899;-31
2024/03/07 00:25:50;;;;;;;47.17;37.93;;;;;;;30.21;84.65;100863.88;5061232;28;65932;-31
2024/03/07 00:28:21;;;;;;;47.72;37.30;;;;;;;30.21;84.32;100866.59;5053290;28;70100;-32
2024/03/07 00:30:52;;;;;;;48.87;35.80;;;;;;;30.28;84.48;100867.44;5058355;28;66130;-30
2024/03/07 00:33:22;;;;;;;41.78;34.42;;;;;;;30.32;84.46;100872.41;5059657;28;69961;-32
2024/03/07 00:35:56;;;;;;;41.65;34.03;;;;;;;30.34;85.08;100876.56;5045522;28;65282;-31
2024/03/07 00:38:26;;;;;;;44.78;34.67;;;;;;;30.39;84.63;100884.00;5056581;28;71060;-31
2024/03/07 00:40:59;;;;;;;40.23;32.47;;;;;;;30.37;85.73;100891.50;5056255;28;66052;-31
2024/03/07 00:43:30;;;;;;;40.25;33.58;;;;;;;30.41;85.02;100895.44;5058107;28;70157;-31
2024/03/07 00:46:02;;;;;;;46.10;33.88;;;;;;;30.46;84.46;100895.63;5056977;28;67339;-32
2024/03/07 00:48:33;;;;;;;41.92;32.67;;;;;;;30.48;85.62;100899.78;5059093;28;70043;-31
2024/03/07 00:51:05;;;;;;;40.20;31.88;;;;;;;30.41;85.25;100898.16;5057756;28;66601;-31
2024/03/07 00:53:36;;;;;;;40.40;33.45;;;;;;;30.45;84.42;100904.78;5057715;28;69802;-31
2024/03/07 00:56:07;;;;;;;41.33;31.93;;;;;;;30.47;84.59;100905.41;5059336;28;65163;-30
2024/03/07 00:58:38;;;;;;;38.38;32.10;;;;;;;30.47;85.38;100908.13;5058244;28;69989;-31
2024/03/07 01:01:09;;;;;;;38.13;31.13;;;;;;;30.49;84.51;100906.03;5057775;28;66221;-31
2024/03/07 01:03:40;;;;;;;40.60;31.30;;;;;;;30.50;84.35;100904.97;5059012;28;70155;-31
2024/03/07 01:06:11;;;;;;;36.72;29.38;;;;;;;30.52;84.58;100905.59;5055262;28;65522;-31
2024/03/07 01:08:42;;;;;;;35.67;30.77;;;;;;;30.51;84.20;100898.53;5058061;28;70221;-31
2024/03/07 01:11:14;;;;;;;39.73;29.87;;;;;;;30.55;84.50;100905.16;5057011;28;66477;-31
2024/03/07 01:13:45;;;;;;;32.03;28.73;;;;;;;30.56;83.78;100906.78;5055750;28;69454;-30
2024/03/07 01:16:16;;;;;;;34.72;29.35;;;;;;;30.57;83.91;100903.06;5056976;28;66596;-31
2024/03/07 01:18:47;;;;;;;31.67;27.40;;;;;;;30.59;83.67;100906.38;5059221;28;69325;-31
2024/03/07 01:21:18;;;;;;;37.57;28.27;;;;;;;30.59;83.65;100911.81;5058304;28;65239;-31
2024/03/07 01:23:49;;;;;;;35.88;29.13;;;;;;;30.61;83.91;100920.50;5054519;28;69816;-30
2024/03/07 01:26:20;;;;;;;31.97;28.50;;;;;;;30.62;83.68;100916.78;5058180;28;66735;-32
2024/03/07 01:28:52;;;;;;;31.75;28.42;;;;;;;30.62;83.72;100914.06;5055375;28;69984;-32
2024/03/07 01:31:23;;;;;;;33.67;27.63;;;;;;;30.66;83.45;100923.41;5056969;28;66327;-31
2024/03/07 01:33:54;;;;;;;31.15;27.50;;;;;;;30.67;83.47;100927.78;5057212;28;69785;-31
2024/03/07 01:36:26;;;;;;;32.03;28.30;;;;;;;30.67;83.02;100916.97;5053842;28;66345;-31
2024/03/07 01:38:57;;;;;;;31.88;27.90;;;;;;;30.69;83.58;100933.81;5051482;28;70452;-30
2024/03/07 01:41:28;;;;;;;31.00;27.50;;;;;;;30.71;82.95;100929.00;5054263;28;64397;-32
2024/03/07 01:44:00;;;;;;;30.17;26.98;;;;;;;30.73;82.96;100935.03;5057192;28;69161;-31
2024/03/07 01:46:32;;;;;;;30.40;27.17;;;;;;;30.76;82.71;100946.47;5050687;28;65693;-31
2024/03/07 01:49:03;;;;;;;29.50;26.53;;;;;;;30.77;82.85;100934.59;5050874;28;70433;-30
2024/03/07 01:51:38;;;;;;;28.17;25.17;;;;;;;30.73;82.81;100923.38;5056112;28;66085;-31
2024/03/07 01:54:10;;;;;;;29.05;26.10;;;;;;;30.77;83.10;100937.31;5053346;28;68106;-34
2024/03/07 01:56:41;;;;;;;28.63;25.55;;;;;;;30.82;82.63;100937.53;5055099;28;66803;-32
2024/03/07 01:59:13;;;;;;;30.37;26.23;;;;;;;30.64;82.59;100914.66;5050731;28;69854;-32
2024/03/07 02:01:46;;;;;;;30.80;25.85;;;;;;;30.87;82.47;100945.78;5055588;28;64988;-31
2024/03/07 02:04:17;;;;;;;28.02;25.25;;;;;;;30.89;82.71;100949.13;5056925;28;70008;-31
2024/03/07 02:06:48;;;;;;;33.05;27.08;;;;;;;30.86;82.17;100936.03;5061519;28;66973;-36
2024/03/07 02:09:19;;;;;;;28.70;25.60;;;;;;;30.92;82.02;100944.13;5060168;28;70164;-32
2024/03/07 02:11:50;;;;;;;28.95;26.10;;;;;;;30.89;82.06;100935.56;5062050;28;66044;-32
2024/03/07 02:14:21;;;;;;;29.17;24.95;;;;;;;30.94;82.17;100944.72;5060631;28;71973;-31
2024/03/07 02:16:52;;;;;;;29.50;26.30;;;;;;;30.97;81.85;100940.72;5054390;28;67458;-31
2024/03/07 02:19:24;;;;;;;29.83;26.65;;;;;;;30.98;82.13;100945.13;5059864;28;71683;-31
2024/03/07 02:21:55;;;;;;;28.05;25.35;;;;;;;31.02;81.99;100943.63;5058963;28;66505;-33
2024/03/07 02:24:25;;;;;;;29.25;25.50;;;;;;;31.04;81.44;100941.53;5059634;28;69623;-33
2024/03/07 02:26:56;;;;;;;28.10;25.25;;;;;;;31.04;81.58;100941.53;5060210;28;66111;-32
2024/03/07 02:29:27;;;;;;;28.13;25.13;;;;;;;31.08;81.85;100941.91;5060774;28;70465;-32
2024/03/07 02:31:57;;;;;;;28.75;25.88;;;;;;;31.03;81.67;100939.84;5057945;28;66028;-33
2024/03/07 02:34:28;;;;;;;28.25;25.33;;;;;;;31.14;81.52;100947.25;5060814;28;69540;-31
2024/03/07 02:36:58;;;;;;;27.95;24.85;;;;;;;31.15;81.56;100943.53;5058752;28;66183;-32
2024/03/07 02:39:29;;;;;;;27.85;25.05;;;;;;;31.20;81.23;100944.72;5052695;28;70179;-33
2024/03/07 02:41:59;;;;;;;28.80;25.70;;;;;;;31.23;81.01;100947.84;5060331;28;66121;-35
2024/03/07 02:44:32;;;;;;;33.70;26.92;;;;;;;31.24;81.05;100945.97;5052110;28;69116;-35
2024/03/07 02:47:03;;;;;;;30.40;26.92;;;;;;;31.27;81.11;100940.91;5057746;28;66530;-31
2024/03/07 02:49:34;;;;;;;29.52;26.42;;;;;;;31.28;81.21;100947.16;5060643;28;70333;-31
2024/03/07 02:52:07;;;;;;;32.50;26.75;;;;;;;31.30;80.95;100939.63;5059494;28;65333;-32
2024/03/07 02:54:38;;;;;;;32.78;27.10;;;;;;;31.33;80.63;100941.91;5060328;28;70337;-31
2024/03/07 02:57:08;;;;;;;28.60;25.30;;;;;;;31.35;80.45;100939.81;5058322;28;66923;-31
2024/03/07 02:59:38;;;;;;;30.80;26.45;;;;;;;31.37;80.54;100933.16;5060030;28;70322;-30
2024/03/07 03:02:09;;;;;;;28.80;25.80;;;;;;;31.40;80.34;100934.59;5060369;28;66247;-31
2024/03/07 03:04:40;;;;;;;29.73;26.17;;;;;;;31.41;80.63;100936.22;5058585;28;70385;-33
2024/03/07 03:07:11;;;;;;;31.65;26.30;;;;;;;31.44;80.76;100933.06;5057948;28;66003;-32
2024/03/07 03:09:43;;;;;;;27.67;24.80;;;;;;;31.46;80.35;100922.84;5058053;28;68909;-31
2024/03/07 03:12:13;;;;;;;27.02;24.13;;;;;;;31.50;80.62;100917.81;5056408;28;66135;-31
2024/03/07 03:14:44;;;;;;;29.35;25.90;;;;;;;31.53;80.16;100917.34;5055840;28;70017;-31
2024/03/07 03:17:15;;;;;;;28.90;25.90;;;;;;;31.55;80.21;100904.41;5060140;28;66797;-31
2024/03/07 03:19:46;;;;;;;30.23;26.08;;;;;;;31.58;80.14;100903.94;5060539;28;70404;-32
2024/03/07 03:22:18;;;;;;;30.43;24.60;;;;;;;31.60;79.67;100908.09;5057741;28;66237;-35
2024/03/07 03:24:48;;;;;;;28.00;25.05;;;;;;;31.57;80.25;100888.75;5060660;28;70209;-31
2024/03/07 03:27:19;;;;;;;29.05;25.92;;;;;;;31.66;79.86;100894.69;5057304;28;66375;-32
2024/03/07 03:29:50;;;;;;;28.02;25.00;;;;;;;31.69;79.73;100883.41;5058174;28;69413;-31
2024/03/07 03:32:21;;;;;;;32.90;26.98;;;;;;;31.71;79.69;100886.72;5060305;28;66327;-32
2024/03/07 03:34:52;;;;;;;28.67;25.77;;;;;;;31.75;79.66;100893.34;5060520;28;70000;-31
2024/03/07 03:37:23;;;;;;;29.77;26.67;;;;;;;31.77;79.37;100880.38;5056913;28;66651;-31
2024/03/07 03:39:53;;;;;;;28.48;25.58;;;;;;;31.79;79.54;100881.00;5055887;28;70378;-31
2024/03/07 03:42:24;;;;;;;29.33;25.38;;;;;;;31.82;79.11;100884.06;5060921;28;66841;-31
2024/03/07 03:44:55;;;;;;;28.35;25.45;;;;;;;31.85;79.41;100881.97;5058546;28;69965;-33
2024/03/07 03:47:28;;;;;;;27.70;24.83;;;;;;;31.87;79.22;100875.25;5059810;28;65458;-34
2024/03/07 03:49:58;;;;;;;28.30;25.40;;;;;;;31.90;79.27;100874.81;5060200;28;69537;-32
2024/03/07 03:52:30;;;;;;;29.63;25.65;;;;;;;31.93;78.99;100868.97;5059314;28;65218;-33
2024/03/07 03:55:02;;;;;;;28.43;25.43;;;;;;;31.95;78.93;100871.44;5058876;28;70198;-32
2024/03/07 03:57:33;;;;;;;28.17;25.35;;;;;;;31.97;79.08;100859.28;5058748;28;65199;-30
2024/03/07 04:00:12;;;;;;;28.00;25.03;;;;;;;32.00;79.02;100863.44;5060262;28;70264;-31
2024/03/07 04:02:48;;;;;;;29.50;26.35;;;;;;;32.04;78.96;100864.66;5053676;28;65649;-31
2024/03/07 04:05:21;;;;;;;28.75;25.65;;;;;;;31.91;78.94;100838.50;5058673;28;71030;-31
2024/03/07 04:07:52;;;;;;;29.35;26.25;;;;;;;32.09;78.91;100853.09;5059744;28;65718;-32
2024/03/07 04:10:22;;;;;;;30.63;26.33;;;;;;;32.12;78.94;100849.91;5054596;28;70397;-31
2024/03/07 04:12:53;;;;;;;29.33;26.15;;;;;;;32.15;78.88;100850.31;5058325;28;65811;-31
2024/03/07 04:15:26;;;;;;;30.15;27.00;;;;;;;32.16;79.07;100846.53;5059732;28;70470;-31
2024/03/07 04:17:57;;;;;;;31.08;27.13;;;;;;;32.19;78.86;100834.38;5057418;28;66282;-32
2024/03/07 04:20:29;;;;;;;29.38;26.23;;;;;;;32.22;78.81;100836.63;5058107;28;70717;-31
2024/03/07 04:23:00;;;;;;;30.40;26.60;;;;;;;32.23;78.65;100831.00;5054952;28;66017;-32
2024/03/07 04:25:31;;;;;;;29.63;26.48;;;;;;;32.26;78.65;100826.97;5057640;28;69905;-32
2024/03/07 04:28:02;;;;;;;29.50;26.42;;;;;;;32.30;78.55;100830.06;5055562;28;65750;-32
2024/03/07 04:30:33;;;;;;;28.73;25.77;;;;;;;32.33;78.48;100824.97;5058101;28;70121;-32
2024/03/07 04:33:06;;;;;;;34.10;27.40;;;;;;;32.36;78.62;100821.81;5057003;28;66144;-33
2024/03/07 04:35:36;;;;;;;30.05;26.35;;;;;;;32.38;78.39;100816.97;5059018;28;69614;-31
2024/03/07 04:38:11;;;;;;;33.90;26.95;;;;;;;32.41;78.50;100810.25;5053974;28;66701;-33
2024/03/07 04:40:44;;;;;;;28.95;25.92;;;;;;;32.37;78.54;100799.00;5059358;28;70414;-31
2024/03/07 04:43:15;;;;;;;30.42;27.00;;;;;;;32.45;78.44;100806.81;5059675;28;65179;-32
2024/03/07 04:45:46;;;;;;;30.70;27.57;;;;;;;32.46;78.22;100803.09;5057904;28;69303;-31
2024/03/07 04:48:16;;;;;;;33.58;26.52;;;;;;;32.51;78.47;100801.56;5059386;28;66244;-31
2024/03/07 04:50:47;;;;;;;30.33;27.20;;;;;;;32.54;78.22;100801.09;5059009;28;70119;-32
2024/03/07 04:53:19;;;;;;;30.00;26.63;;;;;;;32.53;78.36;100794.00;5057057;28;65413;-31
2024/03/07 04:55:50;;;;;;;31.75;27.05;;;;;;;32.58;78.35;100794.16;5057615;28;69897;-31
2024/03/07 04:58:21;;;;;;;29.85;26.67;;;;;;;32.61;78.13;100785.53;5047486;28;66332;-32
2024/03/07 05:00:51;;;;;;;32.88;27.38;;;;;;;32.62;78.22;100776.31;5042167;28;68684;-31
2024/03/07 05:03:22;;;;;;;31.27;27.98;;;;;;;32.66;78.09;100782.94;5058227;28;66485;-31
2024/03/07 05:05:57;;;;;;;30.98;27.08;;;;;;;32.68;78.03;100767.22;5059453;28;69946;-31
2024/03/07 05:08:28;;;;;;;34.15;28.52;;;;;;;32.68;78.10;100768.06;5048891;28;66917;-31
2024/03/07 05:10:58;;;;;;;31.92;28.52;;;;;;;32.70;78.11;100765.09;5059648;28;70107;-32
2024/03/07 05:13:29;;;;;;;32.50;28.35;;;;;;;32.72;77.97;100752.94;5058547;28;66134;-32
2024/03/07 05:16:01;;;;;;;31.00;27.77;;;;;;;32.73;78.03;100748.31;5059059;28;70444;-32
2024/03/07 05:18:32;;;;;;;34.92;27.83;;;;;;;32.78;78.20;100745.72;5056194;28;66178;-31
2024/03/07 05:21:34;;;;;;;29.27;26.38;;;;;;;32.79;77.77;100731.09;5058130;28;69673;-31
2024/03/07 05:23:53;;;;;;;31.52;28.35;;;;;;;32.85;78.12;100734.75;5050319;28;65913;-36
2024/03/07 05:26:24;;;;;;;31.63;28.33;;;;;;;32.86;77.94;100726.38;5052118;28;70480;-31
2024/03/07 05:28:54;;;;;;;31.63;28.23;;;;;;;32.87;78.03;100717.13;5057476;28;67345;-32
2024/03/07 05:31:25;;;;;;;32.73;27.97;;;;;;;32.90;77.82;100718.56;5051778;28;70274;-35
2024/03/07 05:33:56;;;;;;;31.33;28.10;;;;;;;32.92;77.70;100709.09;5055466;28;66894;-31
2024/03/07 05:36:27;;;;;;;30.85;27.83;;;;;;;32.96;77.63;100712.19;5057953;28;70563;-32
2024/03/07 05:38:57;;;;;;;31.13;27.80;;;;;;;32.96;77.54;100697.75;5058105;28;65867;-33
2024/03/07 05:41:29;;;;;;;30.37;27.37;;;;;;;32.98;77.75;100695.63;5059681;28;70376;-33
2024/03/07 05:44:00;;;;;;;31.08;27.98;;;;;;;33.02;77.54;100692.25;5058742;28;65616;-33
2024/03/07 05:46:31;;;;;;;30.52;27.33;;;;;;;33.06;77.52;100693.41;5061132;28;70002;-31
2024/03/07 05:49:03;;;;;;;30.88;27.23;;;;;;;33.08;77.44;100685.84;5057799;28;65753;-31
2024/03/07 05:51:35;;;;;;;30.30;27.27;;;;;;;33.06;77.41;100670.84;5060908;28;70234;-33
2024/03/07 05:54:06;;;;;;;31.42;28.35;;;;;;;33.13;77.35;100676.97;5062549;28;66345;-33
2024/03/07 05:56:38;;;;;;;29.90;26.97;;;;;;;33.17;77.29;100675.41;5060204;28;70309;-33
2024/03/07 05:59:12;;;;;;;30.30;27.23;;;;;;;33.19;77.35;100672.47;5062372;28;66738;-32
2024/03/07 06:01:42;;;;;;;30.30;27.30;;;;;;;33.24;76.81;100665.25;5059034;28;69818;-30
2024/03/07 06:04:15;;;;;;;32.40;27.67;;;;;;;33.24;77.21;100667.97;5060491;28;66515;-34
2024/03/07 06:06:46;;;;;;;30.45;27.13;;;;;;;33.31;77.10;100657.75;5061448;28;71813;-32
2024/03/07 06:09:21;;;;;;;31.05;26.58;;;;;;;33.34;76.74;100657.25;5060184;28;65372;-32
2024/03/07 06:11:52;;;;;;;29.35;26.42;;;;;;;33.35;77.06;100650.78;5057187;28;69856;-36
2024/03/07 06:14:24;;;;;;;30.63;27.40;;;;;;;33.36;76.99;100641.53;5060262;28;66738;-32
2024/03/07 06:16:54;;;;;;;29.95;26.80;;;;;;;33.42;76.55;100636.19;5059328;28;70508;-31
2024/03/07 06:19:25;;;;;;;30.25;27.25;;;;;;;33.47;76.41;100636.31;5061535;28;66427;-32
2024/03/07 06:21:56;;;;;;;30.40;27.20;;;;;;;33.49;76.62;100628.69;5058968;28;70334;-30
2024/03/07 06:24:30;;;;;;;31.73;28.10;;;;;;;33.52;76.65;100625.53;5060025;28;66458;-31
2024/03/07 06:27:03;;;;;;;30.25;27.13;;;;;;;33.57;76.59;100628.34;5048801;28;70609;-33
2024/03/07 06:29:34;;;;;;;30.05;27.10;;;;;;;33.58;76.15;100616.41;5052412;28;66739;-31
2024/03/07 06:32:06;;;;;;;29.95;27.02;;;;;;;33.59;76.36;100620.78;5060930;28;70206;-33
2024/03/07 06:34:38;;;;;;;31.25;28.02;;;;;;;33.60;75.92;100606.13;5060114;28;66547;-33
2024/03/07 06:37:09;;;;;;;31.67;28.45;;;;;;;33.64;76.09;100601.81;5058391;28;69736;-34
2024/03/07 06:39:39;;;;;;;31.58;28.48;;;;;;;33.72;76.17;100598.69;5055342;28;66091;-32
2024/03/07 06:42:10;;;;;;;33.60;30.10;;;;;;;33.74;75.76;100591.13;5055200;28;70432;-33
2024/03/07 06:44:41;;;;;;;35.97;29.70;;;;;;;33.76;76.02;100602.56;5057641;28;66109;-31
2024/03/07 06:47:12;;;;;;;32.63;29.23;;;;;;;33.81;75.65;100591.75;5059310;28;71170;-34
2024/03/07 06:49:44;;;;;;;32.33;28.30;;;;;;;33.84;75.96;100589.63;5060859;28;66617;-31
2024/03/07 06:52:15;;;;;;;32.25;28.95;;;;;;;33.88;75.62;100585.31;5058106;28;69873;-32
2024/03/07 06:54:46;;;;;;;31.70;28.67;;;;;;;33.89;75.73;100576.13;5058588;28;65743;-32
2024/03/07 06:57:18;;;;;;;31.88;28.70;;;;;;;33.91;75.87;100595.75;5060665;28;70142;-31
2024/03/07 06:59:49;;;;;;;32.28;28.35;;;;;;;33.93;75.35;100569.09;5060145;28;66351;-32
2024/03/07 07:02:20;;;;;;;31.25;28.13;;;;;;;33.96;75.59;100574.03;5060197;28;70597;-31
2024/03/07 07:04:52;;;;;;;33.27;29.73;;;;;;;33.99;75.35;100565.38;5061274;28;65498;-31
2024/03/07 07:07:22;;;;;;;33.28;29.98;;;;;;;34.02;75.61;100570.34;5059228;28;70718;-32
2024/03/07 07:09:53;;;;;;;30.65;27.67;;;;;;;34.03;75.30;100561.09;5051947;28;66536;-32
2024/03/07 07:12:24;;;;;;;32.50;29.03;;;;;;;34.08;75.21;100561.19;5059052;28;69167;-31
2024/03/07 07:14:58;;;;;;;32.03;28.52;;;;;;;34.12;75.12;100562.34;5058897;28;65340;-32
2024/03/07 07:17:29;;;;;;;31.85;28.70;;;;;;;34.12;75.46;100559.59;5058923;28;69920;-31
2024/03/07 07:20:00;;;;;;;32.17;28.97;;;;;;;34.19;75.20;100559.44;5058477;28;66515;-32
2024/03/07 07:22:31;;;;;;;32.10;29.00;;;;;;;34.22;75.19;100557.03;5058677;28;70116;-32
2024/03/07 07:25:05;;;;;;;31.27;28.05;;;;;;;34.26;74.86;100552.72;5051893;28;66607;-32
2024/03/07 07:27:36;;;;;;;;;;;;;;;34.23;74.67;100552.41;5055895;28;69751;-32
2024/03/07 07:30:07;;;;;;;31.08;27.90;;;;;;;34.33;74.58;100546.31;5053658;28;66214;-31
2024/03/07 07:32:41;;;;;;;;;;;;;;;34.28;74.44;100536.16;5061162;28;69880;-32
2024/03/07 07:35:15;;;;;;;30.70;27.80;;;;;;;34.29;74.57;100520.63;5043036;28;67082;-35
2024/03/07 07:37:53;;;;;;;30.75;27.77;;;;;;;34.34;74.58;100520.72;5058931;28;69171;-32
2024/03/07 07:40:27;;;;;;;30.40;27.20;;;;;;;34.35;74.67;100515.03;5052917;28;66378;-31
2024/03/07 07:42:58;;;;;;;31.67;28.30;;;;;;;34.39;74.82;100515.34;5048974;28;69321;-34
2024/03/07 07:45:29;;;;;;;30.93;28.03;;;;;;;34.39;74.63;100505.25;5059778;28;65134;-32
2024/03/07 07:48:00;;;;;;;31.70;28.55;;;;;;;34.43;74.69;100511.84;5059724;28;71114;-33
2024/03/07 07:50:34;;;;;;;30.57;27.63;;;;;;;34.47;74.85;100507.53;5060026;28;66332;-33
2024/03/07 07:53:08;;;;;;;31.20;28.02;;;;;;;34.47;74.72;100501.28;5058938;28;70300;-34
2024/03/07 07:55:40;;;;;;;33.83;27.77;;;;;;;34.53;74.75;100504.88;5055963;28;66447;-31
2024/03/07 07:58:10;;;;;;;31.48;28.25;;;;;;;34.54;74.79;100510.06;5060046;28;70524;-31
2024/03/07 08:00:43;;;;;;;32.50;29.02;;;;;;;34.53;74.42;100505.69;5049505;28;66236;-31
2024/03/07 08:03:17;;;;;;;31.70;28.20;;;;;;;34.55;74.24;100503.56;5059452;28;69233;-33
2024/03/07 08:05:48;;;;;;;30.67;27.48;;;;;;;34.62;74.60;100506.91;5060030;28;66088;-31
2024/03/07 08:08:20;;;;;;;32.40;28.93;;;;;;;34.65;74.34;100497.41;5058371;28;70365;-32
2024/03/07 08:10:51;;;;;;;30.70;27.17;;;;;;;34.67;74.35;100498.81;5051689;28;66618;-32
2024/03/07 08:13:22;;;;;;;30.17;27.20;;;;;;;34.69;74.12;100499.38;5055940;28;71648;-34
2024/03/07 08:15:53;;;;;;;30.80;27.60;;;;;;;34.69;74.53;100491.22;5057365;28;65972;-31
2024/03/07 08:18:24;;;;;;;;;;;;;;;34.66;74.20;100496.34;5058457;28;69746;-31
2024/03/07 08:20:54;;;;;;;29.67;26.83;;;;;;;34.78;74.40;100496.22;5059727;28;66081;-31
2024/03/07 08:23:26;;;;;;;31.77;28.63;;;;;;;34.80;73.80;100499.47;5057899;28;71175;-33
2024/03/07 08:25:56;;;;;;;;;;;;;;;34.65;73.35;100490.06;5060958;28;66494;-34
2024/03/07 08:28:27;;;;;;;30.63;27.60;;;;;;;34.85;73.55;100484.03;5058923;28;70491;-32
2024/03/07 08:30:59;;;;;;;32.50;27.42;;;;;;;34.83;73.84;100482.63;5042518;28;66288;-32
2024/03/07 08:33:33;;;;;;;29.90;27.00;;;;;;;34.87;74.04;100481.03;5053345;28;70349;-34
2024/03/07 08:36:04;;;;;;;31.20;28.15;;;;;;;34.88;73.86;100479.94;5057800;28;66414;-33
2024/03/07 08:38:37;;;;;;;29.90;26.88;;;;;;;34.89;74.02;100470.72;5057745;28;69518;-32
2024/03/07 08:41:07;;;;;;;30.45;27.52;;;;;;;34.88;73.31;100477.22;5059548;28;66258;-33
2024/03/07 08:43:38;;;;;;;31.33;28.08;;;;;;;34.90;73.65;100480.50;5055373;28;70251;-32
2024/03/07 08:46:11;;;;;;;30.73;27.50;;;;;;;34.77;73.93;100450.94;5058911;28;65494;-34
2024/03/07 08:48:42;;;;;;;30.65;27.02;;;;;;;34.94;73.95;100473.47;5058904;28;70209;-31
2024/03/07 08:51:13;;;;;;;29.65;26.70;;;;;;;34.96;74.03;100468.56;5057491;28;65995;-33
2024/03/07 08:53:43;;;;;;;30.65;27.40;;;;;;;34.97;73.55;100472.16;5055166;28;69997;-32
2024/03/07 08:56:14;;;;;;;28.67;25.98;;;;;;;34.95;74.02;100466.94;5046994;28;66629;-32
2024/03/07 08:58:45;;;;;;;30.60;27.65;;;;;;;34.96;73.41;100454.94;5055017;28;70629;-32
2024/03/07 09:01:16;;;;;;;31.45;28.15;;;;;;;35.01;74.04;100460.44;5058871;28;66006;-32
2024/03/07 09:03:47;;;;;;;31.27;28.10;;;;;;;34.99;74.05;100462.59;5054997;28;69640;-32
2024/03/07 09:06:18;;;;;;;37.03;29.20;;;;;;;35.02;73.79;100459.38;5046988;28;66759;-32
2024/03/07 09:08:49;;;;;;;30.77;27.73;;;;;;;35.03;74.07;100455.56;5057169;28;70734;-32
2024/03/07 09:11:19;;;;;;;31.25;28.00;;;;;;;35.04;74.04;100459.94;5056574;28;66554;-32
2024/03/07 09:13:50;;;;;;;30.30;27.40;;;;;;;35.07;73.72;100456.72;5048849;28;69452;-32
2024/03/07 09:16:21;;;;;;;34.43;28.67;;;;;;;35.12;74.06;100464.94;5056396;28;65112;-32
2024/03/07 09:18:51;;;;;;;45.17;32.92;;;;;;;35.13;74.34;100465.75;5053579;28;69959;-32
2024/03/07 09:21:22;;;;;;;71.20;39.07;;;;;;;35.16;74.30;100467.16;5057391;28;66304;-32
2024/03/07 09:23:53;;;;;;;55.53;36.27;;;;;;;35.07;75.95;100461.34;5045798;28;70469;-31
2024/03/07 09:26:24;;;;;;;57.33;33.67;;;;;;;35.01;76.00;100462.38;5054796;28;67070;-32
2024/03/07 09:28:55;;;;;;;46.28;31.77;;;;;;;35.00;76.96;100458.81;5056846;28;70676;-32
2024/03/07 09:31:26;;;;;;;40.15;29.05;;;;;;;35.00;77.09;100450.63;5058434;28;66229;-31
2024/03/07 09:33:58;;;;;;;49.33;33.55;;;;;;;35.06;76.38;100463.25;5055345;28;70250;-33
2024/03/07 09:36:29;;;;;;;77.88;50.95;;;;;;;34.99;76.85;100462.59;5057105;28;67274;-34
2024/03/07 09:39:00;;;;;;;57.15;38.17;;;;;;;35.02;77.30;100462.13;5056255;28;70038;-32
2024/03/07 09:41:31;;;;;;;51.90;32.88;;;;;;;34.97;77.49;100451.16;5057610;28;66479;-33
2024/03/07 09:44:05;;;;;;;53.97;32.08;;;;;;;35.00;77.38;100471.63;5057624;28;69739;-31
2024/03/07 09:46:37;;;;;;;36.65;28.48;;;;;;;34.92;76.95;100449.19;5057297;28;66615;-31
2024/03/07 09:49:10;;;;;;;;;;;;;;;34.93;77.68;100477.28;5058004;28;70560;-31
2024/03/07 09:51:42;;;;;;;50.85;29.15;;;;;;;35.00;76.80;100472.44;5055369;28;66993;-31
2024/03/07 09:54:14;;;;;;;36.78;28.25;;;;;;;34.98;77.39;100482.78;5056057;28;70502;-31
2024/03/07 09:56:46;;;;;;;41.90;27.77;;;;;;;35.02;77.49;100481.19;5051357;28;65864;-32
2024/03/07 09:59:20;;;;;;;;;;;;;;;34.87;78.14;100481.84;5044957;28;70258;-32
2024/03/07 10:01:54;;;;;;;36.10;27.08;;;;;;;34.97;77.28;100481.16;5054492;28;67169;-33
2024/03/07 10:04:48;;;;;;;48.85;27.92;;;;;;;34.96;78.00;100487.66;5055410;28;70012;-32
2024/03/07 10:07:19;;;;;;;36.72;26.27;;;;;;;34.99;76.88;100492.59;5056219;28;66297;-34
2024/03/07 10:09:52;;;;;;;34.13;25.00;;;;;;;34.98;77.58;100499.13;5056261;28;70073;-32
2024/03/07 10:12:22;;;;;;;43.67;26.38;;;;;;;34.98;77.81;100506.50;5055117;28;66931;-31
2024/03/07 10:14:57;;;;;;;32.85;26.15;;;;;;;34.81;77.60;100482.06;5053572;28;70403;-31
2024/03/07 10:17:29;;;;;;;27.98;24.05;;;;;;;35.01;77.24;100516.88;5053022;28;66103;-31
2024/03/07 10:20:00;;;;;;;33.17;24.92;;;;;;;34.94;77.55;100522.53;5058228;28;69522;-31
2024/03/07 10:22:31;;;;;;;;;;;;;;;34.85;77.78;100524.06;5060731;28;64946;-32
2024/03/07 10:25:01;;;;;;;28.30;24.20;;;;;;;34.92;77.65;100527.41;5060856;28;69362;-32
2024/03/07 10:27:32;;;;;;;30.05;23.75;;;;;;;34.84;77.94;100523.25;5059018;28;66028;-32
2024/03/07 10:30:03;;;;;;;31.40;23.53;;;;;;;34.93;77.21;100531.78;5062369;28;70144;-32
2024/03/07 10:32:34;;;;;;;28.17;23.50;;;;;;;34.89;77.61;100527.94;5059745;28;67696;-32
2024/03/07 10:35:07;;;;;;;;;;;;;;;34.79;78.59;100535.97;5060148;28;70930;-31
2024/03/07 10:37:48;;;;;;;30.23;22.40;;;;;;;34.89;77.24;100536.09;5061031;28;66925;-32
2024/03/07 10:41:15;;;;;;;26.48;22.23;;;;;;;34.76;77.95;100531.06;5060339;28;70053;-33
2024/03/07 10:43:50;;;;;;;27.20;21.83;;;;;;;34.61;77.49;100513.47;5059060;28;66675;-33
2024/03/07 10:46:23;;;;;;;25.17;20.38;;;;;;;34.87;77.43;100543.72;5055566;28;70440;-31
2024/03/07 10:48:58;;;;;;;27.38;21.05;;;;;;;34.75;77.28;100532.13;5053876;28;65210;-31
2024/03/07 10:52:13;;;;;;;22.52;20.40;;;;;;;34.76;77.67;100552.84;5055190;28;71369;-32
2024/03/07 10:54:49;;;;;;;22.75;20.42;;;;;;;34.59;77.80;100526.50;5041908;28;66118;-32
2024/03/07 10:57:39;;;;;;;23.15;19.45;;;;;;;34.78;77.89;100545.25;5053791;28;70237;-31
2024/03/07 11:00:30;;;;;;;23.50;20.85;;;;;;;34.85;76.84;100556.75;5053600;28;66611;-32
2024/03/07 11:03:06;;;;;;;21.63;19.38;;;;;;;34.82;77.36;100565.44;5056365;28;69157;-32
2024/03/07 11:05:39;;;;;;;29.33;20.35;;;;;;;34.78;77.50;100558.88;5055890;28;65202;-31
2024/03/07 11:08:13;;;;;;;29.02;20.25;;;;;;;34.79;77.12;100569.50;5053890;28;69427;-31
2024/03/07 11:10:47;;;;;;;21.90;19.70;;;;;;;34.78;77.27;100572.50;5057701;28;65278;-33
2024/03/07 11:13:19;;;;;;;22.08;19.45;;;;;;;34.77;77.69;100570.81;5055139;28;69806;-31
2024/03/07 11:15:52;;;;;;;21.95;18.38;;;;;;;34.73;77.09;100570.53;5056520;28;66929;-31
2024/03/07 11:18:23;;;;;;;21.65;19.27;;;;;;;34.73;77.42;100575.97;5055230;28;69997;-31
2024/03/07 11:20:57;;;;;;;20.75;18.88;;;;;;;34.67;77.10;100583.25;5053669;28;66414;-32
2024/03/07 11:23:38;;;;;;;23.80;19.63;;;;;;;34.51;77.65;100559.59;5055231;28;70257;-30
2024/03/07 11:26:10;;;;;;;21.85;19.65;;;;;;;34.65;77.38;100601.75;5055492;28;66506;-31
2024/03/07 11:28:43;;;;;;;24.55;20.02;;;;;;;34.63;77.68;100608.53;5056446;28;69752;-32
2024/03/07 11:31:27;;;;;;;23.73;19.80;;;;;;;34.58;77.80;100614.75;5054138;28;66133;-31
2024/03/07 11:34:18;;;;;;;21.10;19.10;;;;;;;34.50;78.22;100614.34;5053851;28;70825;-32